Time;durP1;ratioP1;P1;durP2;ratioP2;P2;SDS_P1;SDS_P2;PMS_P1;PMS_P2;Temp;Humidity;BMP_temperature;BMP_pressure;BME280_temperature;BME280_humidity;BME280_pressure;Samples;Min_cycle;Max_cycle;Signal;HPM_P1;HPM_P2
2023/03/14 00:00:54;;;;;;;;;;;17.10;50.00;;;;;;5011670;28;19917;-88
2023/03/14 00:03:20;;;;;;;;;;;17.10;50.00;;;;;;4994746;28;19921;-90
2023/03/14 00:05:45;;;;;;;;;;;17.10;49.90;;;;;;5011910;28;19949;-93
2023/03/14 00:08:12;;;;;;;;;;;17.00;50.20;;;;;;5003993;28;20016;-92
2023/03/14 00:10:41;;;;;;;;;;;17.10;50.00;;;;;;5012436;28;19910;-94
2023/03/14 00:13:07;;;;;;;;;;;17.20;49.90;;;;;;5008848;28;20354;-90
2023/03/14 00:15:33;;;;;;;;;;;17.10;49.90;;;;;;5014611;28;20000;-91
2023/03/14 00:17:59;;;;;;;;;;;17.20;49.70;;;;;;5015582;28;19913;-92
2023/03/14 00:20:24;;;;;;;;;;;17.20;49.90;;;;;;4989267;28;19977;-88
2023/03/14 00:22:50;;;;;;;;;;;17.30;49.70;;;;;;5005830;28;19921;-89
2023/03/14 00:25:16;;;;;;;;;;;17.10;50.00;;;;;;5011793;28;19945;-94
2023/03/14 00:27:41;;;;;;;;;;;17.20;49.80;;;;;;5009455;28;19925;-91
2023/03/14 00:30:10;;;;;;;;;;;17.30;49.60;;;;;;5010735;28;19918;-91
2023/03/14 00:32:36;;;;;;;;;;;17.10;49.70;;;;;;5012357;28;20372;-91
2023/03/14 00:35:02;;;;;;;;;;;17.10;49.80;;;;;;4996879;28;19917;-94
2023/03/14 00:37:28;;;;;;;;;;;17.10;49.80;;;;;;5015983;28;20004;-92
2023/03/14 00:39:54;;;;;;;;;;;16.90;50.10;;;;;;5012886;28;20008;-90
2023/03/14 00:42:19;;;;;;;;;;;17.00;50.10;;;;;;5013912;28;19925;-88
2023/03/14 00:44:46;;;;;;;;;;;17.00;50.10;;;;;;5016313;28;20284;-90
2023/03/14 00:47:11;;;;;;;;;;;17.00;50.10;;;;;;4997178;28;20325;-89
2023/03/14 00:49:40;;;;;;;;;;;16.90;50.20;;;;;;5016051;28;20010;-90
2023/03/14 00:52:05;;;;;;;;;;;17.00;50.20;;;;;;5015249;28;19910;-94
2023/03/14 00:54:31;;;;;;;;;;;17.00;50.20;;;;;;4996347;28;20067;-91
2023/03/14 00:56:57;;;;;;;;;;;17.00;50.10;;;;;;4997672;28;20004;-93
2023/03/14 00:59:22;;;;;;;;;;;17.00;50.00;;;;;;4997042;28;19940;-92
2023/03/14 01:01:48;;;;;;;;;;;17.10;49.90;;;;;;4996122;28;19916;-89
2023/03/14 01:04:14;;;;;;;;;;;17.00;49.90;;;;;;5014266;28;19918;-92
2023/03/14 01:06:39;;;;;;;;;;;17.10;49.90;;;;;;5014463;28;19980;-94
2023/03/14 01:09:05;;;;;;;;;;;17.10;49.80;;;;;;5015393;28;19917;-91
2023/03/14 01:11:32;;;;;;;;;;;17.10;49.70;;;;;;5012935;28;20343;-88
2023/03/14 01:13:57;;;;;;;;;;;17.20;49.70;;;;;;5013838;28;20029;-89
2023/03/14 01:16:25;;;;;;;;;;;17.20;49.70;;;;;;5014983;28;19930;-89
2023/03/14 01:18:51;;;;;;;;;;;17.10;49.70;;;;;;5013899;28;19918;-91
2023/03/14 01:21:18;;;;;;;;;;;17.10;49.60;;;;;;5012512;28;19917;-93
2023/03/14 01:23:44;;;;;;;;;;;17.30;49.30;;;;;;5014813;28;19983;-93
2023/03/14 01:26:10;;;;;;;;;;;17.30;49.10;;;;;;5004000;28;19937;-90
2023/03/14 01:28:36;;;;;;;;;;;17.30;48.90;;;;;;5013365;28;19917;-89
2023/03/14 01:31:03;;;;;;;;;;;17.40;48.80;;;;;;5011972;28;20089;-92
2023/03/14 01:33:28;;;;;;;;;;;17.30;48.70;;;;;;5014162;28;19963;-88
2023/03/14 01:35:54;;;;;;;;;;;17.30;48.60;;;;;;5009830;28;19913;-91
2023/03/14 01:38:19;;;;;;;;;;;17.40;48.70;;;;;;5012884;28;19921;-88
2023/03/14 01:40:45;;;;;;;;;;;17.50;48.40;;;;;;5011656;28;19929;-89
2023/03/14 01:43:17;;;;;;;;;;;17.40;48.40;;;;;;5009519;28;19952;-89
2023/03/14 01:46:02;;;;;;;;;;;17.50;48.30;;;;;;4991418;28;19920;-90
2023/03/14 01:48:30;;;;;;;;;;;17.50;48.20;;;;;;4995759;28;19972;-90
2023/03/14 01:50:56;;;;;;;;;;;17.40;48.40;;;;;;4995293;28;19914;-89
2023/03/14 01:53:22;;;;;;;;;;;17.50;48.20;;;;;;5013262;28;19913;-91
2023/03/14 01:55:49;;;;;;;;;;;17.50;48.10;;;;;;4996293;28;19920;-91
2023/03/14 01:58:15;;;;;;;;;;;17.50;47.90;;;;;;4994826;28;19969;-89
2023/03/14 02:00:41;;;;;;;;;;;17.50;47.90;;;;;;5012556;28;20561;-88
2023/03/14 02:03:08;;;;;;;;;;;17.50;47.90;;;;;;5000267;28;19968;-90
2023/03/14 02:05:35;;;;;;;;;;;17.50;47.70;;;;;;4976705;28;19910;-90
2023/03/14 02:08:01;;;;;;;;;;;17.50;47.80;;;;;;5007314;28;20435;-91
2023/03/14 02:10:30;;;;;;;;;;;17.40;47.90;;;;;;5015575;28;19984;-93
2023/03/14 02:12:56;;;;;;;;;;;17.50;47.70;;;;;;5015162;28;19917;-90
2023/03/14 02:15:22;;;;;;;;;;;17.60;47.50;;;;;;5016175;28;19914;-94
2023/03/14 02:17:48;;;;;;;;;;;17.40;47.60;;;;;;5013766;28;19980;-94
2023/03/14 02:20:27;;;;;;;;;;;17.30;47.90;;;;;;5014645;28;19918;-93
2023/03/14 02:22:53;;;;;;;;;;;17.30;48.00;;;;;;5013895;28;19917;-94
2023/03/14 02:25:31;;;;;;;;;;;17.40;47.80;;;;;;5012485;28;19993;-90
2023/03/14 02:27:57;;;;;;;;;;;17.50;47.70;;;;;;5014662;28;20356;-90
2023/03/14 02:30:24;;;;;;;;;;;17.60;47.50;;;;;;5012868;28;19948;-93
2023/03/14 02:32:52;;;;;;;;;;;17.60;47.50;;;;;;5013524;28;20418;-89
2023/03/14 02:35:20;;;;;;;;;;;17.40;50.50;;;;;;5012926;28;19917;-93
2023/03/14 02:37:55;;;;;;;;;;;17.10;53.70;;;;;;5012066;28;19967;-93
2023/03/14 02:40:20;;;;;;;;;;;16.90;56.50;;;;;;4974988;28;19921;-90
2023/03/14 02:42:46;;;;;;;;;;;16.60;58.20;;;;;;4992975;28;19917;-90
2023/03/14 02:45:11;;;;;;;;;;;16.30;58.90;;;;;;4994458;28;19909;-91
2023/03/14 02:47:41;;;;;;;;;;;16.10;59.50;;;;;;4992260;28;20385;-90
2023/03/14 02:50:09;;;;;;;;;;;15.90;60.00;;;;;;4975591;28;20441;-91
2023/03/14 02:52:34;;;;;;;;;;;15.70;60.50;;;;;;4992489;28;19969;-90
2023/03/14 02:55:00;;;;;;;;;;;15.40;61.10;;;;;;4992001;28;19909;-91
2023/03/14 02:57:26;;;;;;;;;;;15.30;61.60;;;;;;4991216;28;20400;-92
2023/03/14 02:59:51;;;;;;;;;;;15.20;62.00;;;;;;4992653;28;19948;-90
2023/03/14 03:02:17;;;;;;;;;;;15.10;62.20;;;;;;4997414;28;19958;-89
2023/03/14 03:04:42;;;;;;;;;;;15.00;62.50;;;;;;4991039;28;20258;-90
2023/03/14 03:07:08;;;;;;;;;;;14.90;62.80;;;;;;5009758;28;19913;-91
2023/03/14 03:09:34;;;;;;;;;;;14.80;63.10;;;;;;4976064;28;19918;-89
2023/03/14 03:11:59;;;;;;;;;;;14.70;63.10;;;;;;5008114;28;19949;-89
2023/03/14 03:14:25;;;;;;;;;;;14.60;63.10;;;;;;5009073;28;20055;-93
2023/03/14 03:16:50;;;;;;;;;;;14.50;63.20;;;;;;5007852;28;19918;-90
2023/03/14 03:19:17;;;;;;;;;;;14.30;63.40;;;;;;5007401;28;19929;-90
2023/03/14 03:21:43;;;;;;;;;;;14.40;63.30;;;;;;4991913;28;19914;-92
2023/03/14 03:24:09;;;;;;;;;;;14.30;63.20;;;;;;5006504;28;20399;-89
2023/03/14 03:26:35;;;;;;;;;;;14.30;63.30;;;;;;4990912;28;20415;-92
2023/03/14 03:29:01;;;;;;;;;;;14.20;63.70;;;;;;5008076;28;19923;-91
2023/03/14 03:31:26;;;;;;;;;;;14.30;63.60;;;;;;4991592;28;20432;-91
2023/03/14 03:33:52;;;;;;;;;;;14.30;63.50;;;;;;5010383;28;19925;-91
2023/03/14 03:36:22;;;;;;;;;;;14.20;63.60;;;;;;5011175;28;20009;-92
2023/03/14 03:38:47;;;;;;;;;;;14.20;63.70;;;;;;4991375;28;20341;-91
2023/03/14 03:41:13;;;;;;;;;;;14.20;63.40;;;;;;4994027;28;20428;-91
2023/03/14 03:43:39;;;;;;;;;;;14.20;63.50;;;;;;5011168;28;19918;-90
2023/03/14 03:46:05;;;;;;;;;;;14.20;63.30;;;;;;4978275;28;19958;-90
2023/03/14 03:48:30;;;;;;;;;;;14.20;63.60;;;;;;4992131;28;19941;-88
2023/03/14 03:50:56;;;;;;;;;;;14.20;64.10;;;;;;4991702;28;19909;-92
2023/03/14 03:53:21;;;;;;;;;;;14.30;63.80;;;;;;4974310;28;19918;-90
2023/03/14 03:55:47;;;;;;;;;;;14.30;63.70;;;;;;4990122;28;19914;-90
2023/03/14 03:58:13;;;;;;;;;;;14.20;63.70;;;;;;5006240;28;19921;-91
2023/03/14 04:00:38;;;;;;;;;;;14.20;63.70;;;;;;5010308;28;19917;-91
2023/03/14 04:03:04;;;;;;;;;;;14.20;63.50;;;;;;5010633;28;19918;-91
2023/03/14 04:05:30;;;;;;;;;;;14.20;63.70;;;;;;5010786;28;20292;-92
2023/03/14 04:07:55;;;;;;;;;;;14.00;64.10;;;;;;5010279;28;19918;-92
2023/03/14 04:10:21;;;;;;;;;;;14.20;63.90;;;;;;5010967;28;19981;-89
2023/03/14 04:12:47;;;;;;;;;;;14.30;63.30;;;;;;5010492;28;19926;-93
2023/03/14 04:15:12;;;;;;;;;;;14.20;63.30;;;;;;5011173;28;19925;-90
2023/03/14 04:17:38;;;;;;;;;;;14.20;63.50;;;;;;5010020;28;19921;-93
2023/03/14 04:20:04;;;;;;;;;;;14.20;63.20;;;;;;5008908;28;19918;-88
2023/03/14 04:22:30;;;;;;;;;;;14.20;63.00;;;;;;5011369;28;19917;-91
2023/03/14 04:24:55;;;;;;;;;;;14.20;63.00;;;;;;5008772;28;19960;-92
2023/03/14 04:27:21;;;;;;;;;;;14.00;63.20;;;;;;5008734;28;19932;-91
2023/03/14 04:29:46;;;;;;;;;;;14.10;63.50;;;;;;5008750;28;20259;-91
2023/03/14 04:32:12;;;;;;;;;;;14.10;63.60;;;;;;5010710;28;19916;-91
2023/03/14 04:34:38;;;;;;;;;;;14.10;63.40;;;;;;4999358;28;19921;-93
2023/03/14 04:37:03;;;;;;;;;;;14.10;63.70;;;;;;4993638;28;19924;-89
2023/03/14 04:39:29;;;;;;;;;;;14.10;63.60;;;;;;5009921;28;19925;-92
2023/03/14 04:41:55;;;;;;;;;;;14.10;63.60;;;;;;5007964;28;19917;-91
2023/03/14 04:44:20;;;;;;;;;;;14.10;63.70;;;;;;5009960;28;19972;-89
2023/03/14 04:46:46;;;;;;;;;;;14.10;63.50;;;;;;4986191;28;19933;-90
2023/03/14 04:49:11;;;;;;;;;;;14.10;63.30;;;;;;4991200;28;19918;-92
2023/03/14 04:51:37;;;;;;;;;;;14.00;63.30;;;;;;4991186;28;19914;-93
2023/03/14 04:54:02;;;;;;;;;;;14.00;63.10;;;;;;4973209;28;19918;-91
2023/03/14 04:56:28;;;;;;;;;;;13.90;63.20;;;;;;4989471;28;19961;-90
2023/03/14 04:58:53;;;;;;;;;;;13.90;63.30;;;;;;4994818;28;19922;-92
2023/03/14 05:01:19;;;;;;;;;;;13.90;63.60;;;;;;4994314;28;19914;-92
2023/03/14 05:03:45;;;;;;;;;;;13.90;63.40;;;;;;5011214;28;20407;-91
2023/03/14 05:06:10;;;;;;;;;;;13.80;63.70;;;;;;5013156;28;19916;-89
2023/03/14 05:08:36;;;;;;;;;;;13.80;63.30;;;;;;5011461;28;19943;-90
2023/03/14 05:11:02;;;;;;;;;;;13.80;63.40;;;;;;5011732;28;19914;-91
2023/03/14 05:13:28;;;;;;;;;;;13.80;63.70;;;;;;5013234;28;20016;-90
2023/03/14 05:15:55;;;;;;;;;;;13.90;64.20;;;;;;5003651;28;20000;-90
2023/03/14 05:18:21;;;;;;;;;;;14.00;64.50;;;;;;4993465;28;20419;-89
2023/03/14 05:20:46;;;;;;;;;;;14.20;64.80;;;;;;4976361;28;19957;-93
2023/03/14 05:23:12;;;;;;;;;;;14.30;64.80;;;;;;4976157;28;19961;-90
2023/03/14 05:25:38;;;;;;;;;;;14.40;64.80;;;;;;4993282;28;20389;-89
2023/03/14 05:28:03;;;;;;;;;;;14.50;64.60;;;;;;5002525;28;20323;-90
2023/03/14 05:30:30;;;;;;;;;;;14.60;64.30;;;;;;4994653;28;19968;-91
2023/03/14 05:32:56;;;;;;;;;;;14.70;64.20;;;;;;5011299;28;19917;-92
2023/03/14 05:35:21;;;;;;;;;;;14.80;64.20;;;;;;4990487;28;19921;-92
2023/03/14 05:37:47;;;;;;;;;;;14.80;64.10;;;;;;4993160;28;20408;-91
2023/03/14 05:40:13;;;;;;;;;;;14.80;64.00;;;;;;4983305;28;19991;-89
2023/03/14 05:42:39;;;;;;;;;;;14.90;63.80;;;;;;5013324;28;19918;-92
2023/03/14 05:45:05;;;;;;;;;;;15.00;63.70;;;;;;5011863;28;20043;-92
2023/03/14 05:47:30;;;;;;;;;;;14.80;63.60;;;;;;4994159;28;19921;-91
2023/03/14 05:49:56;;;;;;;;;;;14.80;63.80;;;;;;5011613;28;19916;-91
2023/03/14 05:52:22;;;;;;;;;;;14.90;63.60;;;;;;4994331;28;19921;-91
2023/03/14 05:54:49;;;;;;;;;;;15.00;63.30;;;;;;4994058;28;20412;-91
2023/03/14 05:57:14;;;;;;;;;;;14.90;63.50;;;;;;4985925;28;19921;-91
2023/03/14 05:59:40;;;;;;;;;;;15.00;63.20;;;;;;4975104;28;20273;-90
2023/03/14 06:02:05;;;;;;;;;;;15.00;63.60;;;;;;4992411;28;19957;-92
2023/03/14 06:04:31;;;;;;;;;;;15.10;63.50;;;;;;4975228;28;19914;-92
2023/03/14 06:06:56;;;;;;;;;;;15.10;63.50;;;;;;4996103;28;19952;-92
2023/03/14 06:09:23;;;;;;;;;;;15.10;63.40;;;;;;5013391;28;19913;-93
2023/03/14 06:11:48;;;;;;;;;;;15.00;63.00;;;;;;5002967;28;19922;-90
2023/03/14 06:14:14;;;;;;;;;;;14.90;62.90;;;;;;5005589;28;19918;-91
2023/03/14 06:16:42;;;;;;;;;;;14.80;63.30;;;;;;4990736;28;20390;-91
2023/03/14 06:19:10;;;;;;;;;;;14.80;63.40;;;;;;5008474;28;19932;-90
2023/03/14 06:21:35;;;;;;;;;;;14.70;63.40;;;;;;4992560;28;19967;-93
2023/03/14 06:24:01;;;;;;;;;;;14.70;63.70;;;;;;5007853;28;19929;-90
2023/03/14 06:26:27;;;;;;;;;;;14.70;63.90;;;;;;5010441;28;19981;-92
2023/03/14 06:28:53;;;;;;;;;;;14.70;63.80;;;;;;5011695;28;19917;-91
2023/03/14 06:31:19;;;;;;;;;;;14.70;63.80;;;;;;4992913;28;20292;-91
2023/03/14 06:33:45;;;;;;;;;;;14.60;64.00;;;;;;4994215;28;19921;-89
2023/03/14 06:36:11;;;;;;;;;;;14.60;64.10;;;;;;5008402;28;19913;-92
2023/03/14 06:38:36;;;;;;;;;;;14.60;64.30;;;;;;5011614;28;20592;-90
2023/03/14 06:41:05;;;;;;;;;;;14.60;64.00;;;;;;5012063;28;19924;-89
2023/03/14 06:43:31;;;;;;;;;;;14.50;64.10;;;;;;4994015;28;19921;-90
2023/03/14 06:45:57;;;;;;;;;;;14.50;64.20;;;;;;4994715;28;19920;-94
2023/03/14 06:48:22;;;;;;;;;;;14.50;64.20;;;;;;5011716;28;20008;-91
2023/03/14 06:50:48;;;;;;;;;;;14.50;64.30;;;;;;5011499;28;19909;-89
2023/03/14 06:53:14;;;;;;;;;;;14.50;64.30;;;;;;5012849;28;20323;-92
2023/03/14 06:55:39;;;;;;;;;;;14.40;64.30;;;;;;4994167;28;19916;-90
2023/03/14 06:58:07;;;;;;;;;;;14.50;64.50;;;;;;5011905;28;19927;-92
2023/03/14 07:00:33;;;;;;;;;;;14.50;64.60;;;;;;5012790;28;19972;-90
2023/03/14 07:02:59;;;;;;;;;;;14.50;64.70;;;;;;5010528;28;19917;-91
2023/03/14 07:05:26;;;;;;;;;;;14.50;64.70;;;;;;5009328;28;20336;-91
2023/03/14 07:07:51;;;;;;;;;;;14.50;64.90;;;;;;5010018;28;19949;-90
2023/03/14 07:10:17;;;;;;;;;;;14.60;64.80;;;;;;5011836;28;19921;-90
2023/03/14 07:12:43;;;;;;;;;;;14.70;64.80;;;;;;4993117;28;19917;-91
2023/03/14 07:15:08;;;;;;;;;;;14.70;64.80;;;;;;4991287;28;19924;-91
2023/03/14 07:17:34;;;;;;;;;;;14.60;64.90;;;;;;5010696;28;20373;-91
2023/03/14 07:20:00;;;;;;;;;;;14.70;64.90;;;;;;4992902;28;19922;-90
2023/03/14 07:22:26;;;;;;;;;;;14.70;64.90;;;;;;5013087;28;19940;-93
2023/03/14 07:24:51;;;;;;;;;;;14.70;64.80;;;;;;5011517;28;19961;-91
2023/03/14 07:27:17;;;;;;;;;;;14.70;64.80;;;;;;4990712;28;19918;-90
2023/03/14 07:29:43;;;;;;;;;;;14.80;64.80;;;;;;5009971;28;20008;-91
2023/03/14 07:32:14;;;;;;;;;;;14.80;64.80;;;;;;4990306;28;19967;-91
2023/03/14 07:34:43;;;;;;;;;;;14.90;64.70;;;;;;5013312;28;19920;-92
2023/03/14 07:37:09;;;;;;;;;;;15.00;65.10;;;;;;5006653;28;19914;-91
2023/03/14 07:39:34;;;;;;;;;;;15.00;64.90;;;;;;4988958;28;19929;-90
2023/03/14 07:42:00;;;;;;;;;;;15.00;64.90;;;;;;5008755;28;19914;-91
2023/03/14 07:44:25;;;;;;;;;;;15.10;65.00;;;;;;5012441;28;19913;-89
2023/03/14 07:46:51;;;;;;;;;;;15.10;65.00;;;;;;5008885;28;19921;-90
2023/03/14 07:49:17;;;;;;;;;;;15.20;65.20;;;;;;5012468;28;19928;-91
2023/03/14 07:51:43;;;;;;;;;;;15.30;65.00;;;;;;5007554;28;19914;-91
2023/03/14 07:54:09;;;;;;;;;;;15.30;64.90;;;;;;4998149;28;19925;-89
2023/03/14 07:56:35;;;;;;;;;;;15.30;64.90;;;;;;5010372;28;19913;-90
2023/03/14 07:59:01;;;;;;;;;;;15.30;65.20;;;;;;5005213;28;20392;-90
2023/03/14 08:01:26;;;;;;;;;;;15.40;65.40;;;;;;5004370;28;19953;-92
2023/03/14 08:03:52;;;;;;;;;;;15.50;65.20;;;;;;4987407;28;20016;-92
2023/03/14 08:06:17;;;;;;;;;;;15.50;65.10;;;;;;5004211;28;19921;-90
2023/03/14 08:08:43;;;;;;;;;;;15.50;65.10;;;;;;5008555;28;20012;-91
2023/03/14 08:11:09;;;;;;;;;;;15.70;65.40;;;;;;5002349;28;19917;-90
2023/03/14 08:13:35;;;;;;;;;;;15.70;65.10;;;;;;4986063;28;19918;-91
2023/03/14 08:16:00;;;;;;;;;;;15.70;65.20;;;;;;5011675;28;19968;-91
2023/03/14 08:18:26;;;;;;;;;;;15.70;65.10;;;;;;5007454;28;19981;-90
2023/03/14 08:20:52;;;;;;;;;;;15.70;64.90;;;;;;4996441;28;21910;-91
2023/03/14 08:23:17;;;;;;;;;;;15.70;65.20;;;;;;5006498;28;20044;-90
2023/03/14 08:25:43;;;;;;;;;;;15.60;65.10;;;;;;5010819;28;20282;-91
2023/03/14 08:28:08;;;;;;;;;;;15.60;65.00;;;;;;5008563;28;20348;-92
2023/03/14 08:30:34;;;;;;;;;;;15.60;64.80;;;;;;4991494;28;20304;-92
2023/03/14 08:33:00;;;;;;;;;;;15.60;65.00;;;;;;4992356;28;19918;-93
2023/03/14 08:35:26;;;;;;;;;;;15.70;65.10;;;;;;4997666;28;19984;-92
2023/03/14 08:37:52;;;;;;;;;;;15.70;65.20;;;;;;5012104;28;19972;-93
2023/03/14 08:40:17;;;;;;;;;;;15.60;65.20;;;;;;5015285;28;19927;-91
2023/03/14 08:42:43;;;;;;;;;;;15.70;65.10;;;;;;5012165;28;19963;-91
2023/03/14 08:45:10;;;;;;;;;;;15.70;65.20;;;;;;4998178;28;19917;-94
2023/03/14 08:47:36;;;;;;;;;;;15.70;65.20;;;;;;4994624;28;19918;-92
2023/03/14 08:50:03;;;;;;;;;;;15.70;65.30;;;;;;4989009;28;20427;-90
2023/03/14 08:52:30;;;;;;;;;;;15.80;65.50;;;;;;5011832;28;19979;-92
2023/03/14 08:54:56;;;;;;;;;;;15.90;65.80;;;;;;5013437;28;19917;-92
2023/03/14 08:57:21;;;;;;;;;;;15.90;65.60;;;;;;5013505;28;19933;-89
2023/03/14 08:59:47;;;;;;;;;;;16.00;65.80;;;;;;5000773;28;19925;-92
2023/03/14 09:02:13;;;;;;;;;;;16.10;65.60;;;;;;5016680;28;20505;-92
2023/03/14 09:04:39;;;;;;;;;;;16.10;65.60;;;;;;5014487;28;19960;-90
2023/03/14 09:07:09;;;;;;;;;;;16.30;65.80;;;;;;5012904;28;19980;-93
2023/03/14 09:09:35;;;;;;;;;;;16.30;65.70;;;;;;5010944;28;19913;-93
2023/03/14 09:12:00;;;;;;;;;;;16.40;65.50;;;;;;4994077;28;19913;-92
2023/03/14 09:14:28;;;;;;;;;;;16.30;65.20;;;;;;5011271;28;19917;-91
2023/03/14 09:16:55;;;;;;;;;;;16.40;65.30;;;;;;4994207;28;19913;-91
2023/03/14 09:19:20;;;;;;;;;;;16.50;65.50;;;;;;4995073;28;20427;-89
2023/03/14 09:21:46;;;;;;;;;;;16.50;65.30;;;;;;5011503;28;19928;-90
2023/03/14 09:24:11;;;;;;;;;;;16.50;65.40;;;;;;5013638;28;19917;-91
2023/03/14 09:26:37;;;;;;;;;;;16.60;65.30;;;;;;4995236;28;20388;-93
2023/03/14 09:29:03;;;;;;;;;;;16.70;65.50;;;;;;5007275;28;20328;-92
2023/03/14 09:31:29;;;;;;;;;;;16.70;65.40;;;;;;4995098;28;19914;-92
2023/03/14 09:33:55;;;;;;;;;;;16.80;66.00;;;;;;4994441;28;20008;-90
2023/03/14 09:36:20;;;;;;;;;;;17.10;66.30;;;;;;5012351;28;19921;-92
2023/03/14 09:38:46;;;;;;;;;;;17.20;65.80;;;;;;5013001;28;19917;-91
2023/03/14 09:41:16;;;;;;;;;;;17.30;65.70;;;;;;4991729;28;19971;-91
2023/03/14 09:43:43;;;;;;;;;;;17.50;65.30;;;;;;5013028;28;19924;-90
2023/03/14 09:46:09;;;;;;;;;;;17.60;65.40;;;;;;5009745;28;20622;-91
2023/03/14 09:48:34;;;;;;;;;;;17.70;65.30;;;;;;4994547;28;19917;-91
2023/03/14 09:51:04;;;;;;;;;;;17.90;65.50;;;;;;4995804;28;19921;-93
2023/03/14 09:53:49;;;;;;;;;;;18.20;65.60;;;;;;4992891;28;19917;-91
2023/03/14 09:56:20;;;;;;;;;;;18.50;65.40;;;;;;4988179;28;19914;-91
2023/03/14 09:58:57;;;;;;;;;;;18.70;64.80;;;;;;4992702;28;19952;-89
2023/03/14 10:01:29;;;;;;;;;;;18.80;64.20;;;;;;5007901;28;19922;-93
2023/03/14 10:03:56;;;;;;;;;;;18.70;63.50;;;;;;4999133;28;19918;-90
2023/03/14 10:06:24;;;;;;;;;;;18.50;63.00;;;;;;4985786;28;19917;-91
2023/03/14 10:08:52;;;;;;;;;;;18.50;62.80;;;;;;5005666;28;20272;-92
2023/03/14 10:22:49;;;;;;;;;;;18.30;63.30;;;;;;5004403;28;19922;-91
2023/03/14 10:40:33;;;;;;;;;;;;;;;;;;;;;
2023/03/14 10:43:32;;;;;;;;;;;;;;;;;;;;;
2023/03/14 10:46:20;;;;;;;;;;;17.70;61.50;;;;;;4952895;28;19922;-92
2023/03/14 10:52:13;;;;;;;;;;;16.90;61.10;;;;;;4961935;28;20013;-92
2023/03/14 10:55:02;;;;;;;;;;;16.60;61.30;;;;;;4962755;28;20012;-94
2023/03/14 11:00:43;;;;;;;;;;;16.00;61.00;;;;;;4902826;29;20292;-93
2023/03/14 11:03:16;;;;;;;;;;;15.60;61.20;;;;;;4910366;29;19926;-92
2023/03/14 11:08:40;;;;;;;;;;;;;;;;;;;;;
2023/03/14 11:11:51;;;;;;;;;;;14.50;60.20;;;;;;4933261;29;19914;-91
2023/03/14 11:14:14;;;;;;;;;;;;;;;;;;;;;
2023/03/14 11:16:48;;;;;;;;;;;13.70;61.20;;;;;;4996303;28;19917;-90
2023/03/14 11:19:28;;;;;;;;;;;13.40;61.70;;;;;;4992433;28;20013;-91
2023/03/14 11:22:15;;;;;;;;;;;13.20;62.00;;;;;;4991975;28;20020;-91
2023/03/14 11:24:53;;;;;;;;;;;13.00;62.30;;;;;;5013725;28;19917;-91
2023/03/14 11:27:25;;;;;;;;;;;12.70;61.90;;;;;;5010667;28;20352;-92
2023/03/14 11:30:15;;;;;;;;;;;12.30;61.40;;;;;;5018438;28;20822;-91
2023/03/14 11:33:02;;;;;;;;;;;12.10;61.70;;;;;;5014063;28;20304;-90
2023/03/14 11:35:30;;;;;;;;;;;11.90;61.90;;;;;;4994696;28;19924;-91
2023/03/14 11:38:00;;;;;;;;;;;11.80;62.30;;;;;;4999447;28;19975;-91
2023/03/14 11:40:27;;;;;;;;;;;11.70;62.50;;;;;;5012799;28;20322;-93
2023/03/14 11:43:00;;;;;;;;;;;11.60;62.40;;;;;;5015076;28;20048;-89
2023/03/14 11:45:32;;;;;;;;;;;11.50;62.50;;;;;;4990771;28;19926;-91
2023/03/14 11:48:06;;;;;;;;;;;11.40;62.40;;;;;;5016495;28;19924;-91
2023/03/14 11:50:32;;;;;;;;;;;11.30;62.50;;;;;;5009358;28;19918;-91
2023/03/14 11:53:01;;;;;;;;;;;11.30;62.60;;;;;;4991971;28;19913;-90
2023/03/14 11:55:30;;;;;;;;;;;11.30;63.00;;;;;;5009423;28;19928;-91
2023/03/14 11:57:58;;;;;;;;;;;11.40;62.90;;;;;;5014465;28;19972;-91
2023/03/14 12:00:24;;;;;;;;;;;11.30;62.90;;;;;;5008757;28;19948;-91
2023/03/14 12:02:54;;;;;;;;;;;11.20;62.60;;;;;;5014876;28;19928;-91
2023/03/14 12:05:23;;;;;;;;;;;11.20;62.90;;;;;;4992698;28;19932;-91
2023/03/14 12:07:55;;;;;;;;;;;11.30;63.20;;;;;;4993763;28;20309;-90
2023/03/14 12:10:20;;;;;;;;;;;11.30;63.50;;;;;;5011915;28;20299;-91
2023/03/14 12:12:47;;;;;;;;;;;11.50;63.50;;;;;;5002392;28;19913;-91
2023/03/14 12:15:20;;;;;;;;;;;11.60;63.40;;;;;;5007090;28;19913;-93
2023/03/14 12:17:53;;;;;;;;;;;11.60;63.10;;;;;;4994084;28;19913;-90
2023/03/14 12:20:23;;;;;;;;;;;11.70;63.20;;;;;;5009928;28;19928;-90
2023/03/14 12:22:53;;;;;;;;;;;11.80;63.50;;;;;;5001907;28;19913;-90
2023/03/14 12:25:20;;;;;;;;;;;12.00;63.30;;;;;;5013243;28;19913;-90
2023/03/14 12:28:04;;;;;;;;;;;12.20;63.30;;;;;;5013549;28;19923;-90
2023/03/14 12:30:31;;;;;;;;;;;12.30;62.90;;;;;;4992312;28;19918;-92
2023/03/14 12:33:08;;;;;;;;;;;12.30;62.90;;;;;;5001610;28;20396;-88
2023/03/14 12:35:35;;;;;;;;;;;12.50;62.80;;;;;;4993595;28;20388;-89
2023/03/14 12:38:03;;;;;;;;;;;12.60;63.30;;;;;;5011981;28;19920;-92
2023/03/14 12:40:32;;;;;;;;;;;12.70;63.00;;;;;;4995063;28;20568;-89
2023/03/14 12:42:59;;;;;;;;;;;12.90;63.10;;;;;;4993926;28;19956;-89
2023/03/14 12:45:28;;;;;;;;;;;13.10;63.40;;;;;;5012576;28;19940;-92
2023/03/14 12:47:54;;;;;;;;;;;13.20;62.60;;;;;;5011653;28;19917;-91
2023/03/14 12:50:21;;;;;;;;;;;13.30;62.90;;;;;;5011550;28;20395;-91
2023/03/14 12:53:05;;;;;;;;;;;13.50;63.00;;;;;;5012766;28;19914;-89
2023/03/14 12:55:38;;;;;;;;;;;13.70;62.90;;;;;;5012290;28;19918;-90
2023/03/14 12:58:07;;;;;;;;;;;13.80;62.70;;;;;;5011074;28;19917;-91
2023/03/14 13:00:34;;;;;;;;;;;14.00;62.50;;;;;;4996130;28;19933;-88
2023/03/14 13:03:22;;;;;;;;;;;14.00;62.30;;;;;;5011124;28;19945;-88
2023/03/14 13:05:55;;;;;;;;;;;14.10;62.50;;;;;;5009912;28;19948;-91
2023/03/14 13:08:37;;;;;;;;;;;14.20;62.70;;;;;;5012140;28;19918;-93
2023/03/14 13:11:06;;;;;;;;;;;14.10;62.00;;;;;;5011451;28;20340;-91
2023/03/14 13:13:33;;;;;;;;;;;14.00;61.70;;;;;;4995096;28;20104;-91
2023/03/14 13:16:03;;;;;;;;;;;14.00;61.90;;;;;;5012428;28;19917;-89
2023/03/14 13:18:36;;;;;;;;;;;13.80;60.90;;;;;;5010764;28;19960;-94
2023/03/14 13:21:05;;;;;;;;;;;13.50;60.80;;;;;;5005773;28;19930;-91
2023/03/14 13:23:31;;;;;;;;;;;13.10;61.30;;;;;;4993896;28;19953;-90
2023/03/14 13:25:57;;;;;;;;;;;12.80;61.50;;;;;;4995551;28;20475;-92
2023/03/14 13:28:23;;;;;;;;;;;12.60;61.80;;;;;;5013752;28;19964;-91
2023/03/14 13:30:49;;;;;;;;;;;12.40;61.90;;;;;;5015621;28;19921;-92
2023/03/14 13:33:16;;;;;;;;;;;12.40;62.40;;;;;;5013174;28;19918;-90
2023/03/14 13:35:44;;;;;;;;;;;12.30;62.30;;;;;;5012423;28;19944;-89
2023/03/14 13:38:14;;;;;;;;;;;12.30;62.50;;;;;;4993861;28;20300;-91
2023/03/14 13:40:42;;;;;;;;;;;12.30;62.50;;;;;;4993815;28;19975;-92
2023/03/14 13:43:14;;;;;;;;;;;12.30;62.70;;;;;;5009575;28;20063;-91
2023/03/14 13:45:48;;;;;;;;;;;12.30;63.00;;;;;;5011837;28;19922;-89
2023/03/14 13:48:14;;;;;;;;;;;12.30;63.00;;;;;;4995871;28;19939;-91
2023/03/14 13:50:44;;;;;;;;;;;12.40;63.30;;;;;;5009615;28;19949;-89
2023/03/14 13:53:11;;;;;;;;;;;12.40;63.00;;;;;;5010618;28;20656;-92
2023/03/14 13:55:36;;;;;;;;;;;12.50;62.90;;;;;;5009285;28;20415;-90
2023/03/14 13:58:02;;;;;;;;;;;12.50;63.00;;;;;;4993312;28;19964;-92
2023/03/14 14:00:27;;;;;;;;;;;12.60;63.10;;;;;;4994333;28;19930;-92
2023/03/14 14:02:58;;;;;;;;;;;12.70;63.30;;;;;;5004590;28;20502;-90
2023/03/14 14:05:26;;;;;;;;;;;12.80;63.60;;;;;;5012371;28;20115;-90
2023/03/14 14:07:52;;;;;;;;;;;13.00;63.50;;;;;;4995677;28;19917;-90
2023/03/14 14:10:18;;;;;;;;;;;13.00;63.20;;;;;;4993043;28;19940;-91
2023/03/14 14:12:52;;;;;;;;;;;13.20;63.20;;;;;;4993870;28;19925;-92
2023/03/14 14:15:38;;;;;;;;;;;13.30;63.20;;;;;;4993561;28;19917;-91
2023/03/14 14:18:05;;;;;;;;;;;13.50;63.10;;;;;;5011530;28;19913;-92
2023/03/14 14:20:34;;;;;;;;;;;13.60;62.90;;;;;;5011218;28;19980;-91
2023/03/14 14:23:04;;;;;;;;;;;13.60;62.10;;;;;;5011656;28;20335;-92
2023/03/14 14:25:29;;;;;;;;;;;13.50;61.80;;;;;;4993956;28;20411;-91
2023/03/14 14:27:55;;;;;;;;;;;13.40;61.30;;;;;;5011741;28;20001;-90
2023/03/14 14:30:21;;;;;;;;;;;13.20;60.50;;;;;;4993835;28;19925;-91
2023/03/14 14:32:49;;;;;;;;;;;13.00;60.40;;;;;;4995496;28;19913;-92
2023/03/14 14:35:24;;;;;;;;;;;12.70;60.30;;;;;;5011228;28;20059;-92
2023/03/14 14:37:50;;;;;;;;;;;12.80;61.10;;;;;;4994206;28;19913;-90
2023/03/14 14:40:15;;;;;;;;;;;12.70;60.60;;;;;;5011113;28;19925;-89
2023/03/14 14:42:41;;;;;;;;;;;12.70;60.70;;;;;;5011185;28;19921;-90
2023/03/14 14:45:11;;;;;;;;;;;12.70;60.80;;;;;;5013219;28;19917;-91
2023/03/14 14:47:49;;;;;;;;;;;12.60;60.40;;;;;;4993393;28;20113;-93
2023/03/14 14:50:27;;;;;;;;;;;12.50;60.70;;;;;;5012448;28;19913;-92
2023/03/14 14:52:55;;;;;;;;;;;12.40;61.20;;;;;;4987598;28;19922;-92
2023/03/14 14:55:21;;;;;;;;;;;12.40;61.40;;;;;;4994843;28;19921;-91
2023/03/14 14:57:51;;;;;;;;;;;12.50;61.50;;;;;;4992833;28;19960;-92
2023/03/14 15:00:26;;;;;;;;;;;12.50;61.40;;;;;;5010650;28;20617;-93